sensor_id;sensor_type;location;lat;lon;timestamp;temperature;humidity
12384;DHT22;6256;63.808;20.336;2023-03-13T00:01:15;-10.20;90.20
12384;DHT22;6256;63.808;20.336;2023-03-13T00:03:41;-10.20;90.60
12384;DHT22;6256;63.808;20.336;2023-03-13T00:06:07;-10.20;90.70
12384;DHT22;6256;63.808;20.336;2023-03-13T00:08:33;-10.30;90.10
12384;DHT22;6256;63.808;20.336;2023-03-13T00:11:09;-10.30;90.20
12384;DHT22;6256;63.808;20.336;2023-03-13T00:13:35;-10.40;90.50
12384;DHT22;6256;63.808;20.336;2023-03-13T00:16:05;-10.50;90.80
12384;DHT22;6256;63.808;20.336;2023-03-13T00:18:31;-10.50;91.10
12384;DHT22;6256;63.808;20.336;2023-03-13T00:20:58;-10.60;90.80
12384;DHT22;6256;63.808;20.336;2023-03-13T00:23:24;-10.60;90.20
12384;DHT22;6256;63.808;20.336;2023-03-13T00:26:04;-10.60;90.50
12384;DHT22;6256;63.808;20.336;2023-03-13T00:28:32;-10.60;90.90
12384;DHT22;6256;63.808;20.336;2023-03-13T00:31:09;-10.60;91.10
12384;DHT22;6256;63.808;20.336;2023-03-13T00:33:40;-10.60;90.70
12384;DHT22;6256;63.808;20.336;2023-03-13T00:36:15;-10.70;90.90
12384;DHT22;6256;63.808;20.336;2023-03-13T00:38:42;-10.70;90.90
12384;DHT22;6256;63.808;20.336;2023-03-13T00:41:22;-10.80;90.90
12384;DHT22;6256;63.808;20.336;2023-03-13T00:43:49;-10.90;91.10
12384;DHT22;6256;63.808;20.336;2023-03-13T00:46:16;-10.90;90.90
12384;DHT22;6256;63.808;20.336;2023-03-13T00:48:43;-10.90;90.80
12384;DHT22;6256;63.808;20.336;2023-03-13T00:51:09;-10.90;91.00
12384;DHT22;6256;63.808;20.336;2023-03-13T00:53:35;-10.90;90.40
12384;DHT22;6256;63.808;20.336;2023-03-13T00:56:04;-10.90;90.30
12384;DHT22;6256;63.808;20.336;2023-03-13T00:58:32;-10.90;90.60
12384;DHT22;6256;63.808;20.336;2023-03-13T01:03:38;-10.90;90.30
12384;DHT22;6256;63.808;20.336;2023-03-13T01:06:08;-10.90;90.00
12384;DHT22;6256;63.808;20.336;2023-03-13T01:08:34;-10.80;90.00
12384;DHT22;6256;63.808;20.336;2023-03-13T01:11:06;-10.80;89.30
12384;DHT22;6256;63.808;20.336;2023-03-13T01:13:32;-10.70;89.00
12384;DHT22;6256;63.808;20.336;2023-03-13T01:16:25;-10.60;87.90
12384;DHT22;6256;63.808;20.336;2023-03-13T01:18:54;-10.50;87.20
12384;DHT22;6256;63.808;20.336;2023-03-13T01:21:22;-10.50;87.30
12384;DHT22;6256;63.808;20.336;2023-03-13T01:23:49;-10.50;87.10
12384;DHT22;6256;63.808;20.336;2023-03-13T01:26:16;-10.40;86.50
12384;DHT22;6256;63.808;20.336;2023-03-13T01:28:41;-10.40;85.80
12384;DHT22;6256;63.808;20.336;2023-03-13T01:33:40;-10.60;86.10
12384;DHT22;6256;63.808;20.336;2023-03-13T01:36:06;-10.60;87.60
12384;DHT22;6256;63.808;20.336;2023-03-13T01:38:32;-10.70;86.70
12384;DHT22;6256;63.808;20.336;2023-03-13T01:40:58;-10.70;87.50
12384;DHT22;6256;63.808;20.336;2023-03-13T01:43:27;-10.80;87.50
12384;DHT22;6256;63.808;20.336;2023-03-13T01:51:18;-10.90;87.50
12384;DHT22;6256;63.808;20.336;2023-03-13T01:53:49;-11.00;87.70
12384;DHT22;6256;63.808;20.336;2023-03-13T01:56:28;-11.00;86.40
12384;DHT22;6256;63.808;20.336;2023-03-13T01:58:57;-11.00;87.10
12384;DHT22;6256;63.808;20.336;2023-03-13T02:01:24;-11.10;87.20
12384;DHT22;6256;63.808;20.336;2023-03-13T02:03:50;-11.20;87.40
12384;DHT22;6256;63.808;20.336;2023-03-13T02:06:16;-11.20;87.60
12384;DHT22;6256;63.808;20.336;2023-03-13T02:08:53;-11.30;89.50
12384;DHT22;6256;63.808;20.336;2023-03-13T02:11:23;-11.40;90.00
12384;DHT22;6256;63.808;20.336;2023-03-13T02:13:52;-11.40;87.40
12384;DHT22;6256;63.808;20.336;2023-03-13T02:16:19;-11.40;87.40
12384;DHT22;6256;63.808;20.336;2023-03-13T02:18:48;-11.40;87.70
12384;DHT22;6256;63.808;20.336;2023-03-13T02:21:26;-11.50;88.60
12384;DHT22;6256;63.808;20.336;2023-03-13T02:24:20;-11.50;89.20
12384;DHT22;6256;63.808;20.336;2023-03-13T02:26:47;-11.60;90.20
12384;DHT22;6256;63.808;20.336;2023-03-13T02:29:13;-11.60;90.40
12384;DHT22;6256;63.808;20.336;2023-03-13T02:31:44;-11.70;89.30
12384;DHT22;6256;63.808;20.336;2023-03-13T02:34:13;-11.70;88.80
12384;DHT22;6256;63.808;20.336;2023-03-13T02:36:41;-11.80;88.70
12384;DHT22;6256;63.808;20.336;2023-03-13T02:39:08;-11.80;89.00
12384;DHT22;6256;63.808;20.336;2023-03-13T02:41:34;-11.90;89.40
12384;DHT22;6256;63.808;20.336;2023-03-13T02:44:00;-11.90;90.00
12384;DHT22;6256;63.808;20.336;2023-03-13T02:46:25;-11.90;90.60
12384;DHT22;6256;63.808;20.336;2023-03-13T02:48:54;-12.00;90.60
12384;DHT22;6256;63.808;20.336;2023-03-13T02:51:32;-12.00;90.10
12384;DHT22;6256;63.808;20.336;2023-03-13T02:54:02;-12.10;90.50
12384;DHT22;6256;63.808;20.336;2023-03-13T02:56:31;-12.10;90.50
12384;DHT22;6256;63.808;20.336;2023-03-13T02:58:58;-12.20;90.20
12384;DHT22;6256;63.808;20.336;2023-03-13T03:01:23;-12.20;90.20
12384;DHT22;6256;63.808;20.336;2023-03-13T03:03:49;-12.30;90.80
12384;DHT22;6256;63.808;20.336;2023-03-13T03:06:15;-12.40;91.10
12384;DHT22;6256;63.808;20.336;2023-03-13T03:08:41;-12.30;91.30
12384;DHT22;6256;63.808;20.336;2023-03-13T03:11:08;-12.40;91.40
12384;DHT22;6256;63.808;20.336;2023-03-13T03:13:35;-12.50;91.70
12384;DHT22;6256;63.808;20.336;2023-03-13T03:16:05;-12.50;92.20
12384;DHT22;6256;63.808;20.336;2023-03-13T03:18:31;-12.60;92.30
12384;DHT22;6256;63.808;20.336;2023-03-13T03:20:57;-12.70;91.80
12384;DHT22;6256;63.808;20.336;2023-03-13T03:23:22;-12.70;91.30
12384;DHT22;6256;63.808;20.336;2023-03-13T03:25:48;-12.80;91.60
12384;DHT22;6256;63.808;20.336;2023-03-13T03:28:14;-12.80;92.30
12384;DHT22;6256;63.808;20.336;2023-03-13T03:30:39;-12.90;91.70
12384;DHT22;6256;63.808;20.336;2023-03-13T03:33:05;-12.90;91.40
12384;DHT22;6256;63.808;20.336;2023-03-13T03:35:31;-13.00;91.50
12384;DHT22;6256;63.808;20.336;2023-03-13T03:37:58;-13.00;91.90
12384;DHT22;6256;63.808;20.336;2023-03-13T03:40:24;-13.10;92.20
12384;DHT22;6256;63.808;20.336;2023-03-13T03:42:49;-13.10;92.50
12384;DHT22;6256;63.808;20.336;2023-03-13T03:45:15;-13.20;92.70
12384;DHT22;6256;63.808;20.336;2023-03-13T03:47:41;-13.20;92.90
12384;DHT22;6256;63.808;20.336;2023-03-13T03:50:07;-13.30;93.00
12384;DHT22;6256;63.808;20.336;2023-03-13T03:52:35;-13.40;92.60
12384;DHT22;6256;63.808;20.336;2023-03-13T03:55:01;-13.50;92.40
12384;DHT22;6256;63.808;20.336;2023-03-13T03:57:27;-13.60;92.50
12384;DHT22;6256;63.808;20.336;2023-03-13T03:59:52;-13.60;92.70
12384;DHT22;6256;63.808;20.336;2023-03-13T04:02:18;-13.70;92.80
12384;DHT22;6256;63.808;20.336;2023-03-13T04:04:44;-13.70;92.80
12384;DHT22;6256;63.808;20.336;2023-03-13T04:07:09;-13.70;93.10
12384;DHT22;6256;63.808;20.336;2023-03-13T04:09:35;-13.80;92.90
12384;DHT22;6256;63.808;20.336;2023-03-13T04:12:01;-13.80;93.00
12384;DHT22;6256;63.808;20.336;2023-03-13T04:14:26;-13.80;93.40
12384;DHT22;6256;63.808;20.336;2023-03-13T04:16:52;-13.90;93.60
12384;DHT22;6256;63.808;20.336;2023-03-13T04:19:18;-13.90;93.90
12384;DHT22;6256;63.808;20.336;2023-03-13T04:21:43;-13.90;94.00
12384;DHT22;6256;63.808;20.336;2023-03-13T04:24:09;-13.90;94.20
12384;DHT22;6256;63.808;20.336;2023-03-13T04:26:35;-14.00;94.90
12384;DHT22;6256;63.808;20.336;2023-03-13T04:29:00;-14.00;95.20
12384;DHT22;6256;63.808;20.336;2023-03-13T04:31:26;-14.00;95.20
12384;DHT22;6256;63.808;20.336;2023-03-13T04:33:52;-14.00;95.40
12384;DHT22;6256;63.808;20.336;2023-03-13T04:36:17;-14.00;95.60
12384;DHT22;6256;63.808;20.336;2023-03-13T04:38:43;-14.10;95.60
12384;DHT22;6256;63.808;20.336;2023-03-13T04:41:09;-14.10;95.90
12384;DHT22;6256;63.808;20.336;2023-03-13T04:43:34;-14.00;96.20
12384;DHT22;6256;63.808;20.336;2023-03-13T04:46:00;-14.10;96.50
12384;DHT22;6256;63.808;20.336;2023-03-13T04:48:26;-14.10;96.50
12384;DHT22;6256;63.808;20.336;2023-03-13T04:50:51;-14.10;96.50
12384;DHT22;6256;63.808;20.336;2023-03-13T04:53:17;-14.20;96.70
12384;DHT22;6256;63.808;20.336;2023-03-13T04:55:43;-14.20;97.00
12384;DHT22;6256;63.808;20.336;2023-03-13T04:58:09;-14.20;97.00
12384;DHT22;6256;63.808;20.336;2023-03-13T05:00:35;-14.30;97.10
12384;DHT22;6256;63.808;20.336;2023-03-13T05:03:01;-14.30;97.10
12384;DHT22;6256;63.808;20.336;2023-03-13T05:05:26;-14.30;97.30
12384;DHT22;6256;63.808;20.336;2023-03-13T05:07:52;-14.30;96.80
12384;DHT22;6256;63.808;20.336;2023-03-13T05:10:18;-14.30;96.80
12384;DHT22;6256;63.808;20.336;2023-03-13T05:12:43;-14.40;96.50
12384;DHT22;6256;63.808;20.336;2023-03-13T05:15:10;-14.40;96.60
12384;DHT22;6256;63.808;20.336;2023-03-13T05:17:35;-14.40;96.90
12384;DHT22;6256;63.808;20.336;2023-03-13T05:20:01;-14.50;96.90
12384;DHT22;6256;63.808;20.336;2023-03-13T05:22:28;-14.50;96.80
12384;DHT22;6256;63.808;20.336;2023-03-13T05:24:54;-14.60;96.70
12384;DHT22;6256;63.808;20.336;2023-03-13T05:27:19;-14.60;96.70
12384;DHT22;6256;63.808;20.336;2023-03-13T05:29:45;-14.60;97.30
12384;DHT22;6256;63.808;20.336;2023-03-13T05:32:11;-14.60;97.30
12384;DHT22;6256;63.808;20.336;2023-03-13T05:34:37;-14.60;97.40
12384;DHT22;6256;63.808;20.336;2023-03-13T05:37:02;-14.60;97.50
12384;DHT22;6256;63.808;20.336;2023-03-13T05:39:28;-14.60;97.70
12384;DHT22;6256;63.808;20.336;2023-03-13T05:41:54;-14.60;98.00
12384;DHT22;6256;63.808;20.336;2023-03-13T05:44:19;-14.50;98.00
12384;DHT22;6256;63.808;20.336;2023-03-13T05:46:45;-14.50;98.10
12384;DHT22;6256;63.808;20.336;2023-03-13T05:49:11;-14.50;98.10
12384;DHT22;6256;63.808;20.336;2023-03-13T05:51:36;-14.50;98.20
12384;DHT22;6256;63.808;20.336;2023-03-13T05:54:02;-14.50;98.30
12384;DHT22;6256;63.808;20.336;2023-03-13T05:56:28;-14.40;98.30
12384;DHT22;6256;63.808;20.336;2023-03-13T05:58:54;-14.40;98.30
12384;DHT22;6256;63.808;20.336;2023-03-13T06:01:19;-14.40;98.20
12384;DHT22;6256;63.808;20.336;2023-03-13T06:03:45;-14.40;98.30
12384;DHT22;6256;63.808;20.336;2023-03-13T06:06:11;-14.40;98.50
12384;DHT22;6256;63.808;20.336;2023-03-13T06:08:37;-14.40;98.60
12384;DHT22;6256;63.808;20.336;2023-03-13T06:11:03;-14.30;98.80
12384;DHT22;6256;63.808;20.336;2023-03-13T06:13:29;-14.30;98.80
12384;DHT22;6256;63.808;20.336;2023-03-13T06:15:56;-14.20;98.80
12384;DHT22;6256;63.808;20.336;2023-03-13T06:18:23;-14.20;99.00
12384;DHT22;6256;63.808;20.336;2023-03-13T06:20:54;-14.10;99.00
12384;DHT22;6256;63.808;20.336;2023-03-13T06:23:20;-14.00;99.10
12384;DHT22;6256;63.808;20.336;2023-03-13T06:25:46;-13.90;99.40
12384;DHT22;6256;63.808;20.336;2023-03-13T06:28:13;-13.60;99.70
12384;DHT22;6256;63.808;20.336;2023-03-13T06:30:38;-13.30;99.60
12384;DHT22;6256;63.808;20.336;2023-03-13T06:33:04;-13.00;99.30
12384;DHT22;6256;63.808;20.336;2023-03-13T06:35:30;-12.80;98.80
12384;DHT22;6256;63.808;20.336;2023-03-13T06:37:55;-12.60;98.40
12384;DHT22;6256;63.808;20.336;2023-03-13T06:40:21;-12.30;98.00
12384;DHT22;6256;63.808;20.336;2023-03-13T06:42:47;-12.10;97.60
12384;DHT22;6256;63.808;20.336;2023-03-13T06:45:12;-11.80;97.60
12384;DHT22;6256;63.808;20.336;2023-03-13T06:47:38;-11.60;97.20
12384;DHT22;6256;63.808;20.336;2023-03-13T06:50:04;-11.30;96.50
12384;DHT22;6256;63.808;20.336;2023-03-13T06:52:29;-11.00;95.60
12384;DHT22;6256;63.808;20.336;2023-03-13T06:54:55;-10.60;95.10
12384;DHT22;6256;63.808;20.336;2023-03-13T06:57:21;-10.40;94.70
12384;DHT22;6256;63.808;20.336;2023-03-13T06:59:47;-10.20;94.40
12384;DHT22;6256;63.808;20.336;2023-03-13T07:02:13;-10.00;94.30
12384;DHT22;6256;63.808;20.336;2023-03-13T07:04:39;-9.90;93.80
12384;DHT22;6256;63.808;20.336;2023-03-13T07:07:05;-9.60;93.60
12384;DHT22;6256;63.808;20.336;2023-03-13T07:09:31;-9.40;93.60
12384;DHT22;6256;63.808;20.336;2023-03-13T07:11:56;-9.30;93.70
12384;DHT22;6256;63.808;20.336;2023-03-13T07:14:23;-9.10;93.70
12384;DHT22;6256;63.808;20.336;2023-03-13T07:16:49;-8.90;93.80
12384;DHT22;6256;63.808;20.336;2023-03-13T07:19:15;-8.70;93.90
12384;DHT22;6256;63.808;20.336;2023-03-13T07:21:41;-8.60;93.80
12384;DHT22;6256;63.808;20.336;2023-03-13T07:24:08;-8.50;93.90
12384;DHT22;6256;63.808;20.336;2023-03-13T07:26:34;-8.30;93.80
12384;DHT22;6256;63.808;20.336;2023-03-13T07:28:59;-8.20;94.10
12384;DHT22;6256;63.808;20.336;2023-03-13T07:31:25;-8.00;94.10
12384;DHT22;6256;63.808;20.336;2023-03-13T07:33:53;-7.80;94.20
12384;DHT22;6256;63.808;20.336;2023-03-13T07:36:21;-7.70;94.30
12384;DHT22;6256;63.808;20.336;2023-03-13T07:38:50;-7.50;94.40
12384;DHT22;6256;63.808;20.336;2023-03-13T07:41:17;-7.30;94.80
12384;DHT22;6256;63.808;20.336;2023-03-13T07:43:44;-7.20;95.00
12384;DHT22;6256;63.808;20.336;2023-03-13T07:46:12;-7.10;95.60
12384;DHT22;6256;63.808;20.336;2023-03-13T07:48:41;-7.00;96.00
12384;DHT22;6256;63.808;20.336;2023-03-13T07:51:20;-6.90;96.20
12384;DHT22;6256;63.808;20.336;2023-03-13T07:53:46;-6.70;96.60
12384;DHT22;6256;63.808;20.336;2023-03-13T07:56:17;-6.50;96.80
12384;DHT22;6256;63.808;20.336;2023-03-13T07:58:44;-6.30;96.90
12384;DHT22;6256;63.808;20.336;2023-03-13T08:03:43;-6.10;97.70
12384;DHT22;6256;63.808;20.336;2023-03-13T08:06:14;-6.10;98.10
12384;DHT22;6256;63.808;20.336;2023-03-13T08:08:41;-6.00;98.20
12384;DHT22;6256;63.808;20.336;2023-03-13T08:11:15;-6.00;98.40
12384;DHT22;6256;63.808;20.336;2023-03-13T08:13:42;-5.90;99.40
12384;DHT22;6256;63.808;20.336;2023-03-13T08:16:11;-5.80;99.80
12384;DHT22;6256;63.808;20.336;2023-03-13T08:18:40;-5.70;99.90
12384;DHT22;6256;63.808;20.336;2023-03-13T08:21:08;-5.50;99.90
12384;DHT22;6256;63.808;20.336;2023-03-13T08:23:35;-5.30;99.90
12384;DHT22;6256;63.808;20.336;2023-03-13T08:26:09;-5.20;99.90
12384;DHT22;6256;63.808;20.336;2023-03-13T08:28:36;-5.00;99.90
12384;DHT22;6256;63.808;20.336;2023-03-13T08:31:20;-4.70;99.90
12384;DHT22;6256;63.808;20.336;2023-03-13T08:33:47;-4.40;99.90
12384;DHT22;6256;63.808;20.336;2023-03-13T08:36:15;-4.10;99.90
12384;DHT22;6256;63.808;20.336;2023-03-13T08:38:42;-3.80;99.90
12384;DHT22;6256;63.808;20.336;2023-03-13T08:41:12;-3.60;99.90
12384;DHT22;6256;63.808;20.336;2023-03-13T08:43:39;-3.30;99.90
12384;DHT22;6256;63.808;20.336;2023-03-13T08:46:04;-3.10;99.90
12384;DHT22;6256;63.808;20.336;2023-03-13T08:48:30;-2.90;99.90
12384;DHT22;6256;63.808;20.336;2023-03-13T08:51:04;-2.80;99.90
12384;DHT22;6256;63.808;20.336;2023-03-13T08:53:30;-2.70;99.90
12384;DHT22;6256;63.808;20.336;2023-03-13T08:55:57;-2.50;99.90
12384;DHT22;6256;63.808;20.336;2023-03-13T08:58:23;-2.30;99.90
12384;DHT22;6256;63.808;20.336;2023-03-13T09:00:48;-2.20;99.90
12384;DHT22;6256;63.808;20.336;2023-03-13T09:03:14;-1.90;99.90
12384;DHT22;6256;63.808;20.336;2023-03-13T09:05:40;-1.60;99.90
12384;DHT22;6256;63.808;20.336;2023-03-13T09:08:05;-1.30;99.90
12384;DHT22;6256;63.808;20.336;2023-03-13T09:10:35;-1.00;99.90
12384;DHT22;6256;63.808;20.336;2023-03-13T09:13:01;-1.00;99.90
12384;DHT22;6256;63.808;20.336;2023-03-13T09:15:27;-0.90;99.90
12384;DHT22;6256;63.808;20.336;2023-03-13T09:17:53;-0.80;99.90
12384;DHT22;6256;63.808;20.336;2023-03-13T09:20:19;-0.80;99.90
12384;DHT22;6256;63.808;20.336;2023-03-13T09:22:45;-0.60;99.90
12384;DHT22;6256;63.808;20.336;2023-03-13T09:25:12;-0.50;99.90
12384;DHT22;6256;63.808;20.336;2023-03-13T09:27:37;-0.10;99.90
12384;DHT22;6256;63.808;20.336;2023-03-13T09:30:04;-0.10;99.90
12384;DHT22;6256;63.808;20.336;2023-03-13T09:32:29;-0.10;99.90
12384;DHT22;6256;63.808;20.336;2023-03-13T09:34:55;-0.10;99.90
12384;DHT22;6256;63.808;20.336;2023-03-13T09:37:21;0.00;99.90
12384;DHT22;6256;63.808;20.336;2023-03-13T09:39:48;0.00;99.90
12384;DHT22;6256;63.808;20.336;2023-03-13T09:42:21;0.10;99.90
12384;DHT22;6256;63.808;20.336;2023-03-13T09:44:55;0.40;99.90
12384;DHT22;6256;63.808;20.336;2023-03-13T09:47:42;0.30;99.90
12384;DHT22;6256;63.808;20.336;2023-03-13T09:50:16;0.40;99.90
12384;DHT22;6256;63.808;20.336;2023-03-13T09:52:43;0.50;99.90
12384;DHT22;6256;63.808;20.336;2023-03-13T09:55:20;0.30;99.90
12384;DHT22;6256;63.808;20.336;2023-03-13T09:57:55;0.30;99.90
12384;DHT22;6256;63.808;20.336;2023-03-13T10:00:40;0.40;99.90
12384;DHT22;6256;63.808;20.336;2023-03-13T10:06:00;0.40;99.90
12384;DHT22;6256;63.808;20.336;2023-03-13T10:08:30;0.50;99.90
12384;DHT22;6256;63.808;20.336;2023-03-13T10:11:03;0.60;99.90
12384;DHT22;6256;63.808;20.336;2023-03-13T10:13:59;0.80;99.90
12384;DHT22;6256;63.808;20.336;2023-03-13T10:16:51;0.90;99.90
12384;DHT22;6256;63.808;20.336;2023-03-13T10:19:25;0.80;99.90
12384;DHT22;6256;63.808;20.336;2023-03-13T10:21:53;0.80;99.90
12384;DHT22;6256;63.808;20.336;2023-03-13T10:24:48;1.10;99.90
12384;DHT22;6256;63.808;20.336;2023-03-13T10:27:14;1.20;99.90
12384;DHT22;6256;63.808;20.336;2023-03-13T10:29:41;1.00;99.90
12384;DHT22;6256;63.808;20.336;2023-03-13T10:32:09;0.90;99.90
12384;DHT22;6256;63.808;20.336;2023-03-13T10:37:16;1.00;99.90
12384;DHT22;6256;63.808;20.336;2023-03-13T10:39:44;1.30;99.90
12384;DHT22;6256;63.808;20.336;2023-03-13T10:42:32;1.50;99.90
12384;DHT22;6256;63.808;20.336;2023-03-13T10:44:59;1.70;99.90
12384;DHT22;6256;63.808;20.336;2023-03-13T10:47:26;1.40;99.90
12384;DHT22;6256;63.808;20.336;2023-03-13T10:49:56;1.50;99.90
12384;DHT22;6256;63.808;20.336;2023-03-13T10:54:59;1.60;99.90
12384;DHT22;6256;63.808;20.336;2023-03-13T10:57:27;1.60;99.90
12384;DHT22;6256;63.808;20.336;2023-03-13T10:59:54;1.90;99.90
12384;DHT22;6256;63.808;20.336;2023-03-13T11:04:52;1.90;99.90
12384;DHT22;6256;63.808;20.336;2023-03-13T11:10:18;1.80;99.90
12384;DHT22;6256;63.808;20.336;2023-03-13T11:12:49;1.60;99.90
12384;DHT22;6256;63.808;20.336;2023-03-13T11:15:30;1.50;99.90
12384;DHT22;6256;63.808;20.336;2023-03-13T11:20:45;1.60;99.90
12384;DHT22;6256;63.808;20.336;2023-03-13T11:26:18;1.50;99.90
12384;DHT22;6256;63.808;20.336;2023-03-13T11:31:33;1.60;99.90
12384;DHT22;6256;63.808;20.336;2023-03-13T11:45:15;1.80;99.90
12384;DHT22;6256;63.808;20.336;2023-03-13T12:05:41;1.70;99.90
12384;DHT22;6256;63.808;20.336;2023-03-13T12:08:27;1.70;99.90
12384;DHT22;6256;63.808;20.336;2023-03-13T12:13:33;1.60;99.90
12384;DHT22;6256;63.808;20.336;2023-03-13T12:16:08;1.70;99.90
12384;DHT22;6256;63.808;20.336;2023-03-13T12:18:39;1.60;99.90
12384;DHT22;6256;63.808;20.336;2023-03-13T12:23:49;1.80;99.90
12384;DHT22;6256;63.808;20.336;2023-03-13T12:26:21;1.90;99.90
12384;DHT22;6256;63.808;20.336;2023-03-13T12:40:34;1.90;99.90
12384;DHT22;6256;63.808;20.336;2023-03-13T12:43:38;1.90;99.30
12384;DHT22;6256;63.808;20.336;2023-03-13T12:52:13;2.00;99.90
12384;DHT22;6256;63.808;20.336;2023-03-13T12:55:08;1.90;99.90
12384;DHT22;6256;63.808;20.336;2023-03-13T13:00:30;1.70;99.80
12384;DHT22;6256;63.808;20.336;2023-03-13T13:08:26;2.00;99.90
12384;DHT22;6256;63.808;20.336;2023-03-13T13:10:51;2.00;99.90
12384;DHT22;6256;63.808;20.336;2023-03-13T13:13:30;1.90;99.90
12384;DHT22;6256;63.808;20.336;2023-03-13T13:16:06;1.70;99.90
12384;DHT22;6256;63.808;20.336;2023-03-13T13:18:36;1.70;99.90
12384;DHT22;6256;63.808;20.336;2023-03-13T13:23:31;1.70;99.90
12384;DHT22;6256;63.808;20.336;2023-03-13T13:39:49;1.20;99.90
12384;DHT22;6256;63.808;20.336;2023-03-13T13:47:28;1.50;99.90
12384;DHT22;6256;63.808;20.336;2023-03-13T13:49:58;1.40;99.90
12384;DHT22;6256;63.808;20.336;2023-03-13T13:52:38;1.20;99.90
12384;DHT22;6256;63.808;20.336;2023-03-13T13:58:04;1.10;99.90
12384;DHT22;6256;63.808;20.336;2023-03-13T14:00:47;1.00;99.90
12384;DHT22;6256;63.808;20.336;2023-03-13T14:03:30;1.10;99.90
12384;DHT22;6256;63.808;20.336;2023-03-13T14:06:03;1.00;99.90
12384;DHT22;6256;63.808;20.336;2023-03-13T14:08:39;1.00;99.90
12384;DHT22;6256;63.808;20.336;2023-03-13T14:11:32;0.80;99.90
12384;DHT22;6256;63.808;20.336;2023-03-13T14:14:20;0.60;99.90
12384;DHT22;6256;63.808;20.336;2023-03-13T14:16:47;0.50;99.90
12384;DHT22;6256;63.808;20.336;2023-03-13T14:19:26;0.50;99.90
12384;DHT22;6256;63.808;20.336;2023-03-13T14:22:12;0.40;99.90
12384;DHT22;6256;63.808;20.336;2023-03-13T14:24:39;0.40;99.90
12384;DHT22;6256;63.808;20.336;2023-03-13T14:27:16;0.40;99.90
12384;DHT22;6256;63.808;20.336;2023-03-13T14:30:05;0.40;99.90
12384;DHT22;6256;63.808;20.336;2023-03-13T14:32:33;0.30;99.90
12384;DHT22;6256;63.808;20.336;2023-03-13T14:34:59;0.20;99.90
12384;DHT22;6256;63.808;20.336;2023-03-13T14:37:44;0.20;99.90
12384;DHT22;6256;63.808;20.336;2023-03-13T14:40:26;0.10;99.90
12384;DHT22;6256;63.808;20.336;2023-03-13T14:42:58;0.10;99.90
12384;DHT22;6256;63.808;20.336;2023-03-13T14:47:52;0.10;99.90
12384;DHT22;6256;63.808;20.336;2023-03-13T14:50:21;0.00;99.90
12384;DHT22;6256;63.808;20.336;2023-03-13T14:53:18;0.00;99.90
12384;DHT22;6256;63.808;20.336;2023-03-13T14:55:44;0.00;99.90
12384;DHT22;6256;63.808;20.336;2023-03-13T14:58:30;0.00;99.90
12384;DHT22;6256;63.808;20.336;2023-03-13T15:00:56;0.00;99.90
12384;DHT22;6256;63.808;20.336;2023-03-13T15:03:30;-0.10;99.90
12384;DHT22;6256;63.808;20.336;2023-03-13T15:08:39;-0.10;99.90
12384;DHT22;6256;63.808;20.336;2023-03-13T15:13:44;-0.20;99.90
12384;DHT22;6256;63.808;20.336;2023-03-13T15:16:16;-0.20;99.90
12384;DHT22;6256;63.808;20.336;2023-03-13T15:18:43;-0.20;99.90
12384;DHT22;6256;63.808;20.336;2023-03-13T15:24:01;-0.20;99.90
12384;DHT22;6256;63.808;20.336;2023-03-13T15:26:28;-0.20;99.90
12384;DHT22;6256;63.808;20.336;2023-03-13T15:28:53;-0.20;99.90
12384;DHT22;6256;63.808;20.336;2023-03-13T15:31:22;-0.30;99.90
12384;DHT22;6256;63.808;20.336;2023-03-13T15:33:57;-0.30;99.90
12384;DHT22;6256;63.808;20.336;2023-03-13T15:36:24;-0.40;99.90
12384;DHT22;6256;63.808;20.336;2023-03-13T15:38:50;-0.50;99.90
12384;DHT22;6256;63.808;20.336;2023-03-13T15:41:17;-0.50;99.90
12384;DHT22;6256;63.808;20.336;2023-03-13T15:43:42;-0.50;99.90
12384;DHT22;6256;63.808;20.336;2023-03-13T15:46:15;-0.60;99.90
12384;DHT22;6256;63.808;20.336;2023-03-13T15:48:40;-0.70;99.90
12384;DHT22;6256;63.808;20.336;2023-03-13T15:51:09;-0.90;99.90
12384;DHT22;6256;63.808;20.336;2023-03-13T15:53:36;-0.90;99.90
12384;DHT22;6256;63.808;20.336;2023-03-13T15:56:16;-1.00;99.90
12384;DHT22;6256;63.808;20.336;2023-03-13T15:58:43;-1.00;99.90
12384;DHT22;6256;63.808;20.336;2023-03-13T16:01:11;-1.00;99.90
12384;DHT22;6256;63.808;20.336;2023-03-13T16:03:37;-1.10;99.90
12384;DHT22;6256;63.808;20.336;2023-03-13T16:06:15;-1.10;99.90
12384;DHT22;6256;63.808;20.336;2023-03-13T16:08:41;-1.10;99.90
12384;DHT22;6256;63.808;20.336;2023-03-13T16:11:08;-1.10;99.90
12384;DHT22;6256;63.808;20.336;2023-03-13T16:13:34;-1.10;99.90
12384;DHT22;6256;63.808;20.336;2023-03-13T16:16:00;-1.10;99.90
12384;DHT22;6256;63.808;20.336;2023-03-13T16:18:25;-1.10;99.90
12384;DHT22;6256;63.808;20.336;2023-03-13T16:20:51;-1.10;99.90
12384;DHT22;6256;63.808;20.336;2023-03-13T16:23:17;-1.10;99.90
12384;DHT22;6256;63.808;20.336;2023-03-13T16:25:44;-1.10;99.90
12384;DHT22;6256;63.808;20.336;2023-03-13T16:28:11;-1.10;99.90
12384;DHT22;6256;63.808;20.336;2023-03-13T16:30:38;-1.10;99.90
12384;DHT22;6256;63.808;20.336;2023-03-13T16:33:06;-1.10;99.90
12384;DHT22;6256;63.808;20.336;2023-03-13T16:35:32;-1.10;99.90
12384;DHT22;6256;63.808;20.336;2023-03-13T16:37:58;-1.10;99.90
12384;DHT22;6256;63.808;20.336;2023-03-13T16:40:31;-1.10;99.90
12384;DHT22;6256;63.808;20.336;2023-03-13T16:42:57;-1.10;99.90
12384;DHT22;6256;63.808;20.336;2023-03-13T16:45:23;-1.10;99.90
12384;DHT22;6256;63.808;20.336;2023-03-13T16:47:49;-1.10;99.90
12384;DHT22;6256;63.808;20.336;2023-03-13T16:50:25;-1.20;99.90
12384;DHT22;6256;63.808;20.336;2023-03-13T16:52:53;-1.20;99.90
12384;DHT22;6256;63.808;20.336;2023-03-13T16:55:19;-1.20;99.90
12384;DHT22;6256;63.808;20.336;2023-03-13T16:57:45;-1.10;99.90
12384;DHT22;6256;63.808;20.336;2023-03-13T17:00:19;-1.10;99.90
12384;DHT22;6256;63.808;20.336;2023-03-13T17:02:45;-1.10;99.90
12384;DHT22;6256;63.808;20.336;2023-03-13T17:05:12;-1.10;99.90
12384;DHT22;6256;63.808;20.336;2023-03-13T17:07:41;-1.10;99.90
12384;DHT22;6256;63.808;20.336;2023-03-13T17:10:17;-1.10;99.90
12384;DHT22;6256;63.808;20.336;2023-03-13T17:12:43;-1.10;99.90
12384;DHT22;6256;63.808;20.336;2023-03-13T17:15:09;-1.00;99.90
12384;DHT22;6256;63.808;20.336;2023-03-13T17:17:35;-1.00;99.90
12384;DHT22;6256;63.808;20.336;2023-03-13T17:20:01;-1.00;99.90
12384;DHT22;6256;63.808;20.336;2023-03-13T17:22:26;-0.90;99.90
12384;DHT22;6256;63.808;20.336;2023-03-13T17:24:52;-0.90;99.90
12384;DHT22;6256;63.808;20.336;2023-03-13T17:27:18;-0.90;99.90
12384;DHT22;6256;63.808;20.336;2023-03-13T17:29:43;-0.90;99.90
12384;DHT22;6256;63.808;20.336;2023-03-13T17:32:11;-0.90;99.90
12384;DHT22;6256;63.808;20.336;2023-03-13T17:34:37;-0.90;99.90
12384;DHT22;6256;63.808;20.336;2023-03-13T17:37:15;-0.90;99.90
12384;DHT22;6256;63.808;20.336;2023-03-13T17:39:42;-1.00;99.90
12384;DHT22;6256;63.808;20.336;2023-03-13T17:42:08;-1.00;99.90
12384;DHT22;6256;63.808;20.336;2023-03-13T17:44:34;-1.10;99.90
12384;DHT22;6256;63.808;20.336;2023-03-13T17:46:59;-1.20;99.90
12384;DHT22;6256;63.808;20.336;2023-03-13T17:49:25;-1.20;99.90